Home > Products > Valid Products > TAF

000
FTUS42 KMFL 230956 AAC
TAFAPF
TAF AMD
KAPF 230956Z 2310/2406 VRB06KT P6SM VCSH BKN035 BKN050
      TEMPO 2310/2312 BKN025
     FM231300 06012KT P6SM SCT030 SCT150=



000
FTUS42 KMFL 230954 AAC
TAFMIA
TAF AMD
KMIA 230954Z 2310/2406 VRB03KT P6SM -SHRA BKN035 BKN150
      TEMPO 2310/2313 -RA BKN011
     FM231400 06010KT P6SM SHRA VCTS BKN035CB OVC150
     FM240000 07008KT P6SM -SHRA BKN035=



000
FTUS42 KMFL 230953 AAB
TAFFLL
TAF AMD
KFLL 230953Z 2310/2406 VRB03KT P6SM -SHRA SCT015 BKN060 BKN070
      TEMPO 2310/2312 RA BKN025
     FM231400 07010KT P6SM SHRA VCTS BKN035CB OVC150
     FM240000 08010KT P6SM VCSH BKN035=



000
FTUS42 KMFL 230951 AAB
TAFPBI
TAF AMD
KPBI 230951Z 2310/2406 VRB06KT P6SM SHRA BKN035 BKN050 BKN200
      TEMPO 2310/2313 3SM RA BKN025
     FM231300 06012KT P6SM SCT030 BKN150=



000
FTUS42 KMFL 230846 AAB
TAFAPF
TAF AMD
KAPF 230846Z 2309/2406 VRB06KT P6SM VCSH BKN035 BKN150
      TEMPO 2310/2312 -SHRA BKN015
     FM231300 06012KT P6SM SCT030 SCT150=



000
FTUS42 KMFL 230844 AAB
TAFMIA
TAF AMD
KMIA 230844Z 2309/2406 VRB03KT P6SM -SHRA BKN035 BKN150
      TEMPO 2310/2312 -RA BKN011
     FM231400 06010KT P6SM SHRA VCTS BKN035CB OVC150
     FM240000 07008KT P6SM -SHRA BKN035=



000
FTUS42 KMFL 230843 AAA
TAFFLL
TAF AMD
KFLL 230843Z 2309/2406 VRB03KT P6SM -SHRA FEW025 BKN060 BKN070
     FM231400 07010KT P6SM SHRA VCTS BKN035CB OVC150
     FM240000 08010KT P6SM VCSH BKN035=



000
FTUS42 KMFL 230842 AAA
TAFPBI
TAF AMD
KPBI 230842Z 2309/2406 02006KT P6SM VCSH BKN035 BKN050 BKN200
     FM231300 06012KT P6SM SCT030 BKN150=



000
FTUS42 KMFL 230647 AAA
TAFAPF
TAF AMD
KAPF 230647Z 2307/2406 VRB03KT P6SM SCT025 BKN150
     FM231300 06012KT P6SM SCT030 SCT150=



000
FTUS42 KMFL 230647 AAA
TAFMIA
TAF AMD
KMIA 230647Z 2307/2406 VRB03KT P6SM -SHRA FEW020 SCT120 BKN150
      TEMPO 2307/2309 RA BKN015
     FM231400 06010KT P6SM SHRA VCTS BKN035CB OVC150
     FM240000 07008KT P6SM -SHRA BKN035=



000
FTUS42 KMFL 230521
TAFMIA
TAF
KMIA 230521Z 2306/2406 VRB03KT P6SM -SHRA FEW020 SCT120 BKN150
     FM231400 06010KT P6SM SHRA VCTS BKN035CB OVC150
     FM240000 07008KT P6SM -SHRA BKN035=



000
FTUS42 KMFL 230521
TAFPBI
TAF
KPBI 230521Z 2306/2406 02006KT P6SM VCSH SCT035 SCT045 BKN200
     FM231300 06012KT P6SM SCT030 BKN150=



000
FTUS42 KMFL 230521
TAFAPF
TAF
KAPF 230521Z 2306/2406 VRB03KT P6SM FEW035 BKN150
     FM231300 06012KT P6SM SCT030 SCT150=



000
FTUS42 KMFL 230521
TAFFLL
TAF
KFLL 230521Z 2306/2406 VRB03KT P6SM -SHRA FEW025 BKN040 BKN070
     FM231400 07010KT P6SM SHRA VCTS BKN035CB OVC150
     FM240000 08010KT P6SM VCSH BKN035=



000
FTUS42 KMFL 230242 AAA
TAFAPF
TAF AMD
KAPF 230242Z 2303/2324 VRB03KT P6SM SCT035 BKN150
     FM231300 06012KT P6SM VCSH SCT030 BKN150=



000
FTUS42 KMFL 230242 AAA
TAFFLL
TAF AMD
KFLL 230242Z 2303/2324 VRB03KT P6SM -SHRA FEW025 SCT110 BKN200
     FM231400 07012KT 5SM SHRA VCTS BKN035CB OVC150=



000
FTUS42 KMFL 230242 AAA
TAFPBI
TAF AMD
KPBI 230242Z 2303/2324 VRB03KT P6SM VCSH SCT035 BKN045 BKN110
     FM231300 06012KT P6SM VCSH SCT030 BKN150=



000
FTUS42 KMFL 230242 AAA
TAFMIA
TAF AMD
KMIA 230242Z 2303/2324 VRB03KT P6SM -SHRA FEW015 OVC120
     FM231400 07012KT 5SM SHRA VCTS BKN035CB OVC150=



000
FTUS42 KMFL 222323
TAFFLL
TAF
KFLL 222323Z 2300/2324 08003KT P6SM -RA FEW030 OVC110
     FM231400 07010KT 5SM RA VCTS BKN030CB OVC150=



000
FTUS42 KMFL 222323
TAFAPF
TAF
KAPF 222323Z 2300/2324 15003KT P6SM VCSH FEW030 OVC120
     FM231300 06012G18KT P6SM VCSH SCT030 BKN150=



000
FTUS42 KMFL 222323
TAFPBI
TAF
KPBI 222323Z 2300/2324 03005KT P6SM VCSH SCT030 BKN110
     FM231300 06012KT P6SM VCSH SCT030 BKN150=



000
FTUS42 KMFL 222323
TAFMIA
TAF
KMIA 222323Z 2300/2324 02005KT P6SM -RA FEW025 OVC110
     FM231400 07010KT 5SM RA VCTS BKN030CB OVC150=



000
FTUS42 KMFL 222109 AAA
TAFAPF
TAF AMD
KAPF 222109Z 2221/2318 14005KT P6SM VCSH SCT030 BKN060
     FM231300 06012KT P6SM VCSH SCT030 SCT150=



000
FTUS42 KMFL 222105 AAA
TAFPBI
TAF AMD
KPBI 222105Z 2221/2318 05007KT P6SM SCT025 BKN060
     FM230200 01005KT P6SM SCT030 BKN060
     FM231300 06010KT P6SM SCT030 BKN060=



000
FTUS42 KMFL 222104 AAA
TAFFLL
TAF AMD
KFLL 222104Z 2221/2318 08007KT P6SM VCSH SCT025 BKN100
     FM230000 02005KT P6SM VCSH SCT030 BKN060
     FM231400 07010KT P6SM VCSH SCT030 BKN060=



000
FTUS42 KMFL 222102 AAB
TAFMIA
TAF AMD
KMIA 222102Z 2221/2318 07008KT P6SM -RA SCT025 OVC120
     FM230000 02005KT P6SM VCSH SCT030 BKN060
     FM231400 07010KT P6SM VCSH SCT030 BKN060=



000
FTUS42 KMFL 221943 AAA
TAFMIA
TAF AMD
KMIA 221943Z 2220/2318 07008KT P6SM SCT025 BKN040
      TEMPO 2220/2221 4SM TSRA BKN020CB
     FM230000 02005KT P6SM VCSH SCT030 BKN060
     FM231400 07010KT P6SM VCSH SCT030 BKN060=



000
FTUS42 KMFL 221740
TAFPBI
TAF
KPBI 221740Z 2218/2318 VRB03KT P6SM SCT020 SCT150
     FM222100 07007KT P6SM VCSH SCT025 BKN060
     FM230200 01005KT P6SM SCT030 BKN060
     FM231300 06010KT P6SM SCT030 BKN060=



000
FTUS42 KMFL 221740
TAFAPF
TAF
KAPF 221740Z 2218/2318 05005KT P6SM VCSH SCT030 BKN060
     FM231300 06012KT P6SM VCSH SCT030 SCT150=



000
FTUS42 KMFL 221740
TAFFLL
TAF
KFLL 221740Z 2218/2318 02005KT P6SM SCT030 SCT100
     FM222000 07007KT P6SM VCSH SCT025 BKN060
     FM230000 02005KT P6SM VCSH SCT030 BKN060
     FM231400 07010KT P6SM VCSH SCT030 BKN060=



000
FTUS42 KMFL 221740
TAFMIA
TAF
KMIA 221740Z 2218/2318 01005KT P6SM SCT030 SCT100
     FM222000 07006KT P6SM VCSH SCT025 BKN060
     FM230000 02005KT P6SM VCSH SCT030 BKN060
     FM231400 07010KT P6SM VCSH SCT030 BKN060=



000
FTUS42 KMFL 221740
TAFMIA
TAF
KMIA 221740Z 2218/2318 01005KT P6SM SCT030 SCT100
     FM222000 07006KT P6SM VCSH SCT025 BKN060
     FM230000 02005KT P6SM VCSH SCT030 BKN060
     FM231400 07010KT P6SM VCSH SCT030 BKN060=



000
FTUS42 KMFL 221740
TAFFLL
TAF
KFLL 221740Z 2218/2318 02005KT P6SM SCT030 SCT100
     FM222000 07007KT P6SM VCSH SCT025 BKN060
     FM230000 02005KT P6SM VCSH SCT030 BKN060
     FM231400 07010KT P6SM VCSH SCT030 BKN060=



000
FTUS42 KMFL 221740
TAFAPF
TAF
KAPF 221740Z 2218/2318 05005KT P6SM VCSH SCT030 BKN060
     FM231300 06012KT P6SM VCSH SCT030 SCT150=



000
FTUS42 KMFL 221740
TAFPBI
TAF
KPBI 221740Z 2218/2318 VRB03KT P6SM SCT020 SCT150
     FM222100 07007KT P6SM VCSH SCT025 BKN060
     FM230200 01005KT P6SM SCT030 BKN060
     FM231300 06010KT P6SM SCT030 BKN060=



000
FTUS42 KMFL 221511 AAA
TAFAPF
TAF AMD
KAPF 221511Z 2215/2312 VRB03KT P6SM SCT100
     FM221800 30007KT P6SM VCSH SCT030 BKN200
     FM230000 06005KT P6SM VCSH SCT030 BKN045=



000
FTUS42 KMFL 221507 AAA
TAFMIA
TAF AMD
KMIA 221507Z 2215/2312 33005KT P6SM FEW025 SCT100
     FM221800 06006KT P6SM VCSH SCT030 BKN200
     FM222000 12008KT P6SM VCTS SCT025CB BKN035
     FM230000 01005KT P6SM VCSH SCT030 BKN045=



000
FTUS42 KMFL 221506 AAA
TAFFLL
TAF AMD
KFLL 221506Z 2215/2312 01005KT P6SM FEW040 SCT100
     FM221800 05006KT P6SM VCSH SCT030 BKN200
     FM222000 10008KT P6SM VCTS SCT025CB BKN035
     FM230000 01005KT P6SM VCSH SCT030 BKN045=



000
FTUS42 KMFL 221505 AAA
TAFPBI
TAF AMD
KPBI 221505Z 2215/2312 34005KT P6SM FEW020 SCT100
     FM221800 05006KT P6SM VCSH SCT030 BKN200
     FM222000 08008KT P6SM VCTS SCT025CB BKN035
     FM230000 01005KT P6SM VCSH SCT030 BKN045=



000
FTUS42 KMFL 221140
TAFFLL
TAF
KFLL 221140Z 2212/2312 VRB03KT P6SM FEW025 SCT100
     FM221600 05006KT P6SM VCSH SCT030 BKN200
     FM221800 10008KT P6SM VCTS SCT025CB BKN035
     FM230000 01005KT P6SM VCSH SCT030 BKN045=



000
FTUS42 KMFL 221140
TAFPBI
TAF
KPBI 221140Z 2212/2312 VRB03KT P6SM SCT100
     FM221600 05006KT P6SM VCSH SCT030 BKN200
     FM221800 08008KT P6SM VCTS SCT025CB BKN035
     FM230000 01005KT P6SM VCSH SCT030 BKN045=



000
FTUS42 KMFL 221140
TAFMIA
TAF
KMIA 221140Z 2212/2312 VRB03KT P6SM FEW030 SCT100
     FM221600 06006KT P6SM VCSH SCT030 BKN200
     FM221800 12008KT P6SM VCTS SCT025CB BKN035
     FM230000 01005KT P6SM VCSH SCT030 BKN045=



000
FTUS42 KMFL 221140
TAFAPF
TAF
KAPF 221140Z 2212/2312 VRB03KT P6SM SCT100
     FM221700 30007KT P6SM VCSH SCT030 BKN200
     FM230000 06005KT P6SM VCSH SCT030 BKN045=



000
FTUS42 KMFL 220909 AAA
TAFMIA
TAF AMD
KMIA 220909Z 2209/2306 VRB03KT P6SM SCT030 BKN150
     FM221300 VRB03KT P6SM VCSH SCT030 BKN200
     FM221800 12008KT P6SM VCTS SCT025CB BKN035
     FM230000 VRB03KT P6SM VCSH SCT030 BKN045=



000
FTUS42 KMFL 220909 AAA
TAFFLL
TAF AMD
KFLL 220909Z 2209/2306 VRB03KT P6SM SCT100 BKN150
     FM221400 VRB05KT P6SM VCSH SCT030 BKN200
     FM221700 10008KT P6SM VCTS SCT025CB BKN035
     FM230000 VRB04KT P6SM VCSH SCT030 BKN045=



000
FTUS42 KMFL 220909 AAA
TAFAPF
TAF AMD
KAPF 220909Z 2209/2306 VRB03KT P6SM BKN150
     FM221400 08006KT P6SM VCSH SCT035 BKN200
     FM221800 08008KT P6SM VCTS SCT025CB BKN035
     FM230000 02005KT P6SM VCSH SCT030 BKN045=



000
FTUS42 KMFL 220909 AAA
TAFPBI
TAF AMD
KPBI 220909Z 2209/2306 VRB03KT P6SM SCT100 BKN200
     FM221400 VRB06KT P6SM VCSH SCT030 BKN200
     FM221800 08008KT P6SM VCTS SCT025CB BKN035
     FM230000 02005KT P6SM VCSH SCT030 BKN045=



000
FTUS42 KMFL 220531
TAFPBI
TAF
KPBI 220531Z 2206/2306 VRB03KT P6SM SCT060 BKN250
     FM221400 VRB06KT P6SM VCSH SCT030 BKN250
     FM221800 08008KT P6SM VCTS SCT025CB BKN035
     FM230000 02005KT P6SM VCSH SCT030 BKN045=



000
FTUS42 KMFL 220531
TAFMIA
TAF
KMIA 220531Z 2206/2306 VRB03KT P6SM BKN150
     FM221300 VRB03KT P6SM VCSH SCT030 BKN250
     FM221800 12008KT P6SM VCTS SCT025CB BKN035
     FM230000 VRB03KT P6SM VCSH SCT030 BKN045=



000
FTUS42 KMFL 220531
TAFFLL
TAF
KFLL 220531Z 2206/2306 VRB03KT P6SM SCT100 BKN150
     FM221400 VRB05KT P6SM VCSH SCT030 BKN250
     FM221700 10008KT P6SM VCTS SCT025CB BKN035
     FM230000 VRB04KT P6SM VCSH SCT030 BKN045=



000
FTUS42 KMFL 220531
TAFAPF
TAF
KAPF 220531Z 2206/2306 VRB03KT P6SM BKN200
     FM221400 08006KT P6SM VCSH SCT035 BKN250
     FM221800 08008KT P6SM VCTS SCT025CB BKN035
     FM230000 02005KT P6SM VCSH SCT030 BKN045=



000
FTUS42 KMFL 220531
TAFPBI
TAF
KPBI 220531Z 2206/2306 VRB03KT P6SM SCT060 BKN250
     FM221400 VRB06KT P6SM VCSH SCT030 BKN250
     FM221800 08008KT P6SM VCTS SCT025CB BKN035
     FM230000 02005KT P6SM VCSH SCT030 BKN045=



000
FTUS42 KMFL 220531
TAFMIA
TAF
KMIA 220531Z 2206/2306 VRB03KT P6SM BKN150
     FM221300 VRB03KT P6SM VCSH SCT030 BKN250
     FM221800 12008KT P6SM VCTS SCT025CB BKN035
     FM230000 VRB03KT P6SM VCSH SCT030 BKN045=



000
FTUS42 KMFL 220531
TAFAPF
TAF
KAPF 220531Z 2206/2306 VRB03KT P6SM BKN200
     FM221400 08006KT P6SM VCSH SCT035 BKN250
     FM221800 08008KT P6SM VCTS SCT025CB BKN035
     FM230000 02005KT P6SM VCSH SCT030 BKN045=



000
FTUS42 KMFL 220531
TAFFLL
TAF
KFLL 220531Z 2206/2306 VRB03KT P6SM SCT100 BKN150
     FM221400 VRB05KT P6SM VCSH SCT030 BKN250
     FM221700 10008KT P6SM VCTS SCT025CB BKN035
     FM230000 VRB04KT P6SM VCSH SCT030 BKN045=



000
FTUS42 KMFL 220301 AAB
TAFPBI
TAF AMD
KPBI 220301Z 2203/2224 VRB03KT P6SM SCT060 BKN250
     FM221400 VRB06KT P6SM VCSH SCT030 BKN250=



000
FTUS42 KMFL 220301 AAA
TAFAPF
TAF AMD
KAPF 220301Z 2203/2224 VRB03KT P6SM BKN250
     FM221400 VRB04KT P6SM VCSH SCT035 BKN250=



000
FTUS42 KMFL 220301 AAB
TAFMIA
TAF AMD
KMIA 220301Z 2203/2224 VRB03KT P6SM BKN200
     FM221300 VRB05KT P6SM VCSH SCT030 BKN250=



000
FTUS42 KMFL 220301 AAB
TAFFLL
TAF AMD
KFLL 220301Z 2203/2224 VRB03KT P6SM SCT120 BKN250
     FM221300 VRB05KT P6SM VCSH SCT030 BKN250=



000
FTUS42 KMFL 220003 AAA
TAFMIA
TAF AMD
KMIA 220003Z 2200/2224 VRB03KT P6SM BKN100 OVC250
     FM221300 VRB05KT P6SM SCT030 BKN250=



000
FTUS42 KMFL 212358 AAA
TAFFLL
TAF AMD
KFLL 212358Z 2200/2224 29003KT P6SM BKN100 OVC250
     FM220500 00000KT P6SM OVC250
     FM221300 VRB05KT P6SM SCT030 BKN250=



000
FTUS42 KMFL 212352 AAA
TAFPBI
TAF AMD
KPBI 212352Z 2200/2224 07006KT P6SM BKN070 OVC250
     FM220400 VRB03KT P6SM OVC250
     FM221400 30006KT P6SM SCT030 BKN250=



000
FTUS42 KMFL 212341
TAFAPF
TAF
KAPF 212341Z 2200/2224 10004KT P6SM SCT050 OVC250
     FM220300 VRB02KT P6SM OVC250
     FM221400 07004KT P6SM BKN250=



000
FTUS42 KMFL 212341
TAFFLL
TAF
KFLL 212341Z 2200/2224 36005KT P6SM SCT120 OVC250
     FM221300 28008KT P6SM VCTS SCT030CB BKN080=



000
FTUS42 KMFL 212341
TAFMIA
TAF
KMIA 212341Z 2200/2224 19005KT P6SM SCT030 BKN070
     FM221300 28008KT P6SM VCTS SCT030CB BKN080=



000
FTUS42 KMFL 212341
TAFPBI
TAF
KPBI 212341Z 2200/2224 07006KT P6SM BKN070 OVC100
     FM221300 28008KT P6SM VCTS SCT030CB BKN080=



000
FTUS42 KMFL 212259 AAB
TAFAPF
TAF AMD
KAPF 212259Z 2123/2218 10004KT P6SM SCT050
     FM220000 VRB02KT P6SM VCSH SCT030 BKN080=



000
FTUS42 KMFL 212259 AAB
TAFAPF
TAF AMD
KAPF 212259Z 2123/2218 10004KT P6SM SCT050
     FM220000 VRB02KT P6SM VCSH SCT030 BKN080=



000
FTUS42 KMFL 212259 AAC
TAFFLL
TAF AMD
KFLL 212259Z 2123/2218 36005KT P6SM SCT120 OVC250
     FM221300 28008KT P6SM VCTS SCT030CB BKN080=



000
FTUS42 KMFL 212259 AAC
TAFFLL
TAF AMD
KFLL 212259Z 2123/2218 36005KT P6SM SCT120 OVC250
     FM221300 28008KT P6SM VCTS SCT030CB BKN080=



000
FTUS42 KMFL 212256 AAD
TAFPBI
TAF AMD
KPBI 212256Z 2123/2218 07006KT P6SM FEW025 BKN070 OVC100
     FM221300 28008KT P6SM VCTS SCT030CB BKN080=



000
FTUS42 KMFL 212256 AAD
TAFPBI
TAF AMD
KPBI 212256Z 2123/2218 07006KT P6SM FEW025 BKN070 OVC100
     FM221300 28008KT P6SM VCTS SCT030CB BKN080=



000
FTUS42 KMFL 212103 AAB
TAFFLL
TAF AMD
KFLL 212103Z 2121/2218 19007KT P6SM VCTS SCT030CB BKN060
     FM220000 VRB03KT P6SM VCSH SCT025 BKN080
     FM221300 28008KT P6SM VCTS SCT030CB BKN080=



000
FTUS42 KMFL 212103 AAC
TAFPBI
TAF AMD
KPBI 212103Z 2121/2218 VRB05KT 3SM TSRA SCT010 BKN020CB OVC030
      TEMPO 2121/2123 1SM +TSRA SCT005CB BKN015 OVC020
     FM220000 13009KT P6SM VCTS SCT025CB BKN080
     FM221300 28008KT P6SM VCTS SCT030CB BKN080=



000
FTUS42 KMFL 212103 AAA
TAFAPF
TAF AMD
KAPF 212103Z 2121/2218 21010KT P6SM VCTS SCT025CB BKN070
     FM220000 VRB02KT P6SM VCSH SCT030 BKN080=



000
FTUS42 KMFL 212103 AAA
TAFMIA
TAF AMD
KMIA 212103Z 2121/2218 19005KT P6SM VCTS SCT030CB BKN070
     FM220000 VRB03KT P6SM VCSH SCT025 BKN080
     FM221300 28008KT P6SM VCTS SCT030CB BKN080=



000
FTUS42 KMFL 211959 AAB
TAFPBI
TAF AMD
KPBI 211959Z 2120/2218 VRB05KT 1/4SM +TSRA SCT008 BKN023CB OVC035
     FM212030 VRB05KT 5SM +TSRA SCT008 BKN023CB OVC035
     FM220000 13009KT P6SM VCTS SCT025CB BKN080
     FM221300 28008KT P6SM VCTS SCT030CB BKN080=



000
FTUS42 KMFL 211959 AAB
TAFPBI
TAF AMD
KPBI 211959Z 2120/2218 VRB05KT 1/4SM +TSRA SCT008 BKN023CB OVC035
     FM212030 VRB05KT 5SM +TSRA SCT008 BKN023CB OVC035
     FM220000 13009KT P6SM VCTS SCT025CB BKN080
     FM221300 28008KT P6SM VCTS SCT030CB BKN080=



000
FTUS42 KMFL 211914 AAA
TAFPBI
TAF AMD
KPBI 211914Z 2119/2218 08014KT 4SM TSRA BR VCTS SCT006 BKN020CB
      OVC026
     FM220000 13009KT P6SM VCTS SCT025CB BKN080
     FM221300 28008KT P6SM VCTS SCT030CB BKN080=



000
FTUS42 KMFL 211906 AAA
TAFFLL
TAF AMD
KFLL 211906Z 2119/2218 20010G20KT 4SM TSRA BKN020CB OVC050
     FM211930 19007KT P6SM VCTS SCT030CB BKN060
     FM220000 VRB03KT P6SM VCSH SCT025 BKN080
     FM221300 28008KT P6SM VCTS SCT030CB BKN080=



000
FTUS42 KMFL 211752
TAFPBI
TAF
KPBI 211752Z 2118/2218 17008KT P6SM VCTS SCT030CB OVC070
      TEMPO 2118/2120 VRB15G25KT 1SM +TSRA BR SCT005 BKN015 OVC020CB
     FM220000 VRB03KT P6SM VCSH SCT025 BKN080
     FM221300 28008KT P6SM VCTS SCT030CB BKN080=



000
FTUS42 KMFL 211752
TAFMIA
TAF
KMIA 211752Z 2118/2218 19005KT P6SM VCTS SCT030CB BKN070
     FM220000 VRB03KT P6SM VCSH SCT025 BKN080
     FM221300 28008KT P6SM VCTS SCT030CB BKN080=



000
FTUS42 KMFL 211752
TAFAPF
TAF
KAPF 211752Z 2118/2218 21010KT P6SM VCTS SCT025CB BKN070
     FM220000 VRB02KT P6SM VCSH SCT030 BKN080=



000
FTUS42 KMFL 211752
TAFFLL
TAF
KFLL 211752Z 2118/2218 17004KT P6SM VCTS SCT030CB BKN070
     FM220000 VRB03KT P6SM VCSH SCT025 BKN080
     FM221300 28008KT P6SM VCTS SCT030CB BKN080=



000
FTUS42 KMFL 211504 AAA
TAFFLL
TAF AMD
KFLL 211504Z 2115/2212 17008KT P6SM VCSH SCT030 BKN070
     FM211700 16006KT P6SM VCTS SCT030CB BKN050
     FM220000 VRB03KT P6SM VCSH SCT025 BKN080=



000
FTUS42 KMFL 211504 AAA
TAFPBI
TAF AMD
KPBI 211504Z 2115/2212 17006KT P6SM VCSH SCT030 BKN060
     FM211700 19006KT P6SM VCTS SCT025CB BKN050
     FM220000 VRB02KT P6SM VCSH SCT025 BKN080=



000
FTUS42 KMFL 211504 AAA
TAFMIA
TAF AMD
KMIA 211504Z 2115/2212 19004KT P6SM VCSH SCT030 BKN080
     FM211700 17006KT P6SM VCTS SCT030CB BKN050
     FM220000 VRB02KT P6SM VCSH SCT025 BKN080=



000
FTUS42 KMFL 211504 AAA
TAFMIA
TAF AMD
KMIA 211504Z 2115/2212 19004KT P6SM VCSH SCT030 BKN080
     FM211700 17006KT P6SM VCTS SCT030CB BKN050
     FM220000 VRB02KT P6SM VCSH SCT025 BKN080=



000
FTUS42 KMFL 211504 AAA
TAFFLL
TAF AMD
KFLL 211504Z 2115/2212 17008KT P6SM VCSH SCT030 BKN070
     FM211700 16006KT P6SM VCTS SCT030CB BKN050
     FM220000 VRB03KT P6SM VCSH SCT025 BKN080=



000
FTUS42 KMFL 211504 AAA
TAFAPF
TAF AMD
KAPF 211504Z 2115/2212 14006KT P6SM VCSH SCT030 BKN090
     FM211700 25008KT P6SM VCTS SCT025CB BKN060
     FM220000 VRB02KT P6SM VCSH SCT030 BKN080=



000
FTUS42 KMFL 211504 AAA
TAFPBI
TAF AMD
KPBI 211504Z 2115/2212 17006KT P6SM VCSH SCT030 BKN060
     FM211700 19006KT P6SM VCTS SCT025CB BKN050
     FM220000 VRB02KT P6SM VCSH SCT025 BKN080=



000
FTUS42 KMFL 211133
TAFMIA
TAF
KMIA 211133Z 2112/2212 VRB03KT P6SM VCSH SCT025 BKN080
     FM211600 16006KT P6SM VCTS SCT030CB BKN050
     FM220000 VRB02KT P6SM VCSH SCT025 BKN080=



000
FTUS42 KMFL 211133
TAFFLL
TAF
KFLL 211133Z 2112/2212 19003KT P6SM VCSH SCT025 BKN080
     FM211600 16006KT P6SM VCTS SCT030CB BKN050
     FM220000 VRB03KT P6SM VCSH SCT025 BKN080=



000
FTUS42 KMFL 211133
TAFFLL
TAF
KFLL 211133Z 2112/2212 19003KT P6SM VCSH SCT025 BKN080
     FM211600 16006KT P6SM VCTS SCT030CB BKN050
     FM220000 VRB03KT P6SM VCSH SCT025 BKN080=



000
FTUS42 KMFL 211133
TAFPBI
TAF
KPBI 211133Z 2112/2212 VRB03KT P6SM VCTS SCT025CB BKN050
     FM211600 19006KT P6SM VCTS SCT025CB BKN050
     FM220000 VRB02KT P6SM VCSH SCT025 BKN080=



000
FTUS42 KMFL 211133
TAFFLL
TAF
KFLL 211133Z 2112/2212 19003KT P6SM VCSH SCT025 BKN080
     FM211600 16006KT P6SM VCTS SCT030CB BKN050
     FM220000 VRB03KT P6SM VCSH SCT025 BKN080=



000
FTUS42 KMFL 211133
TAFAPF
TAF
KAPF 211133Z 2112/2212 VRB03KT P6SM VCSH FEW025 SCT070
     FM211700 25008KT P6SM VCTS SCT025CB BKN060
     FM220000 VRB02KT P6SM VCSH SCT030 BKN080=



000
FTUS42 KMFL 211133
TAFPBI
TAF
KPBI 211133Z 2112/2212 VRB03KT P6SM VCTS SCT025CB BKN050
     FM211600 19006KT P6SM VCTS SCT025CB BKN050
     FM220000 VRB02KT P6SM VCSH SCT025 BKN080=



000
FTUS42 KMFL 211133
TAFMIA
TAF
KMIA 211133Z 2112/2212 VRB03KT P6SM VCSH SCT025 BKN080
     FM211600 16006KT P6SM VCTS SCT030CB BKN050
     FM220000 VRB02KT P6SM VCSH SCT025 BKN080=



000
FTUS42 KMFL 211133
TAFPBI
TAF
KPBI 211133Z 2112/2212 VRB03KT P6SM VCTS SCT025CB BKN050
     FM211600 19006KT P6SM VCTS SCT025CB BKN050
     FM220000 VRB02KT P6SM VCSH SCT025 BKN080=



000
FTUS42 KMFL 211133
TAFMIA
TAF
KMIA 211133Z 2112/2212 VRB03KT P6SM VCSH SCT025 BKN080
     FM211600 16006KT P6SM VCTS SCT030CB BKN050
     FM220000 VRB02KT P6SM VCSH SCT025 BKN080=



000
FTUS42 KMFL 211133
TAFAPF
TAF
KAPF 211133Z 2112/2212 VRB03KT P6SM VCSH FEW025 SCT070
     FM211700 25008KT P6SM VCTS SCT025CB BKN060
     FM220000 VRB02KT P6SM VCSH SCT030 BKN080=



000
FTUS42 KMFL 211133
TAFMIA
TAF
KMIA 211133Z 2112/2212 VRB03KT P6SM VCSH SCT025 BKN080
     FM211600 16006KT P6SM VCTS SCT030CB BKN050
     FM220000 VRB02KT P6SM VCSH SCT025 BKN080=



000
FTUS42 KMFL 211133
TAFFLL
TAF
KFLL 211133Z 2112/2212 19003KT P6SM VCSH SCT025 BKN080
     FM211600 16006KT P6SM VCTS SCT030CB BKN050
     FM220000 VRB03KT P6SM VCSH SCT025 BKN080=



000
FTUS42 KMFL 211133
TAFAPF
TAF
KAPF 211133Z 2112/2212 VRB03KT P6SM VCSH FEW025 SCT070
     FM211700 25008KT P6SM VCTS SCT025CB BKN060
     FM220000 VRB02KT P6SM VCSH SCT030 BKN080=



000
FTUS42 KMFL 211133
TAFPBI
TAF
KPBI 211133Z 2112/2212 VRB03KT P6SM VCTS SCT025CB BKN050
     FM211600 19006KT P6SM VCTS SCT025CB BKN050
     FM220000 VRB02KT P6SM VCSH SCT025 BKN080=



000
FTUS42 KMFL 211133
TAFAPF
TAF
KAPF 211133Z 2112/2212 VRB03KT P6SM VCSH FEW025 SCT070
     FM211700 25008KT P6SM VCTS SCT025CB BKN060
     FM220000 VRB02KT P6SM VCSH SCT030 BKN080=



000
FTUS42 KMFL 210855 AAA
TAFPBI
TAF AMD
KPBI 210855Z 2109/2206 VRB03KT P6SM SCT040 BKN250
     FM211400 17006KT P6SM VCSH SCT025 BKN250
     FM211900 18008KT P6SM SHRA SCT025 BKN035 PROB30 2119/2124 TSRA
      BKN035CB
     FM220100 VRB03KT P6SM VCSH SCT025 BKN040=



000
FTUS42 KMFL 210855 AAA
TAFFLL
TAF AMD
KFLL 210855Z 2109/2206 VRB04KT P6SM SCT035 SCT060 BKN100
     FM211400 17006KT P6SM VCSH SCT025 BKN250
     FM211900 19005KT P6SM SHRA SCT025 BKN035 PROB30 2119/2124 TSRA
      BKN035CB
     FM220100 VRB02KT P6SM VCSH SCT025 BKN040=



000
FTUS42 KMFL 210855 AAA
TAFPBI
TAF AMD
KPBI 210855Z 2109/2206 VRB03KT P6SM SCT040 BKN250
     FM211400 17006KT P6SM VCSH SCT025 BKN250
     FM211900 18008KT P6SM SHRA SCT025 BKN035 PROB30 2119/2124 TSRA
      BKN035CB
     FM220100 VRB03KT P6SM VCSH SCT025 BKN040=



000
FTUS42 KMFL 210855 AAA
TAFAPF
TAF AMD
KAPF 210855Z 2109/2206 VRB05KT P6SM VCSH SCT060 BKN100
     FM211500 17005KT P6SM VCSH SCT035 BKN250
     FM211800 25008KT P6SM SHRA SCT025 BKN035 PROB30 2119/2124 TSRA
      BKN035CB
     FM220100 VRB03KT P6SM VCSH SCT025 BKN040=



000
FTUS42 KMFL 210855 AAA
TAFMIA
TAF AMD
KMIA 210855Z 2109/2206 VRB03KT P6SM VCSH SCT050 BKN100
     FM211500 17006KT P6SM VCSH SCT025 BKN250
     FM211900 20006KT P6SM SHRA SCT025 BKN035 PROB30 2119/2124 TSRA
      BKN035CB
     FM220000 VRB03KT P6SM VCSH SCT025 BKN040=



000
FTUS42 KMFL 210855 AAA
TAFAPF
TAF AMD
KAPF 210855Z 2109/2206 VRB05KT P6SM VCSH SCT060 BKN100
     FM211500 17005KT P6SM VCSH SCT035 BKN250
     FM211800 25008KT P6SM SHRA SCT025 BKN035 PROB30 2119/2124 TSRA
      BKN035CB
     FM220100 VRB03KT P6SM VCSH SCT025 BKN040=



000
FTUS42 KMFL 210855 AAA
TAFFLL
TAF AMD
KFLL 210855Z 2109/2206 VRB04KT P6SM SCT035 SCT060 BKN100
     FM211400 17006KT P6SM VCSH SCT025 BKN250
     FM211900 19005KT P6SM SHRA SCT025 BKN035 PROB30 2119/2124 TSRA
      BKN035CB
     FM220100 VRB02KT P6SM VCSH SCT025 BKN040=



000
FTUS42 KMFL 210855 AAA
TAFMIA
TAF AMD
KMIA 210855Z 2109/2206 VRB03KT P6SM VCSH SCT050 BKN100
     FM211500 17006KT P6SM VCSH SCT025 BKN250
     FM211900 20006KT P6SM SHRA SCT025 BKN035 PROB30 2119/2124 TSRA
      BKN035CB
     FM220000 VRB03KT P6SM VCSH SCT025 BKN040=



000
FTUS42 KMFL 210542
TAFAPF
TAF
KAPF 210542Z 2106/2206 12005KT P6SM SCT050
     FM211500 17005KT P6SM VCSH SCT035 BKN250
     FM211800 25008KT P6SM SHRA SCT025 BKN035 PROB30 2119/2124 TSRA
      BKN035CB
     FM220100 VRB03KT P6SM VCSH SCT025 BKN040=



000
FTUS42 KMFL 210542
TAFPBI
TAF
KPBI 210542Z 2106/2206 VRB03KT P6SM BKN050
     FM211400 17006KT P6SM VCSH SCT025 BKN250
     FM211900 18008KT P6SM SHRA SCT025 BKN035 PROB30 2119/2124 TSRA
      BKN035CB
     FM220100 VRB03KT P6SM VCSH SCT025 BKN040=



000
FTUS42 KMFL 210542
TAFFLL
TAF
KFLL 210542Z 2106/2206 VRB03KT P6SM SCT035 SCT060 BKN080
     FM211400 17006KT P6SM VCSH SCT025 BKN250
     FM211900 19005KT P6SM SHRA SCT025 BKN035 PROB30 2119/2124 TSRA
      BKN035CB
     FM220100 VRB02KT P6SM VCSH SCT025 BKN040=



000
FTUS42 KMFL 210542
TAFMIA
TAF
KMIA 210542Z 2106/2206 VRB03KT P6SM VCSH SCT050 BKN090
     FM211500 17006KT P6SM VCSH SCT025 BKN250
     FM211900 20006KT P6SM SHRA SCT025 BKN035 PROB30 2119/2124 TSRA
      BKN035CB
     FM220000 VRB03KT P6SM VCSH SCT025 BKN040=



000
FTUS42 KMFL 210542
TAFMIA
TAF
KMIA 210542Z 2106/2206 VRB03KT P6SM VCSH SCT050 BKN090
     FM211500 17006KT P6SM VCSH SCT025 BKN250
     FM211900 20006KT P6SM SHRA SCT025 BKN035 PROB30 2119/2124 TSRA
      BKN035CB
     FM220000 VRB03KT P6SM VCSH SCT025 BKN040=



000
FTUS42 KMFL 210542
TAFAPF
TAF
KAPF 210542Z 2106/2206 12005KT P6SM SCT050
     FM211500 17005KT P6SM VCSH SCT035 BKN250
     FM211800 25008KT P6SM SHRA SCT025 BKN035 PROB30 2119/2124 TSRA
      BKN035CB
     FM220100 VRB03KT P6SM VCSH SCT025 BKN040=



000
FTUS42 KMFL 210542
TAFPBI
TAF
KPBI 210542Z 2106/2206 VRB03KT P6SM BKN050
     FM211400 17006KT P6SM VCSH SCT025 BKN250
     FM211900 18008KT P6SM SHRA SCT025 BKN035 PROB30 2119/2124 TSRA
      BKN035CB
     FM220100 VRB03KT P6SM VCSH SCT025 BKN040=



000
FTUS42 KMFL 210542
TAFFLL
TAF
KFLL 210542Z 2106/2206 VRB03KT P6SM SCT035 SCT060 BKN080
     FM211400 17006KT P6SM VCSH SCT025 BKN250
     FM211900 19005KT P6SM SHRA SCT025 BKN035 PROB30 2119/2124 TSRA
      BKN035CB
     FM220100 VRB02KT P6SM VCSH SCT025 BKN040=



000
FTUS42 KMFL 210254 AAA
TAFMIA
TAF AMD
KMIA 210254Z 2103/2124 VRB04KT P6SM BKN045 BKN070
     FM210400 VRB03KT P6SM VCSH SCT050
     FM211400 16005KT P6SM VCSH SCT025 BKN250=



000
FTUS42 KMFL 210254 AAA
TAFPBI
TAF AMD
KPBI 210254Z 2103/2124 13006KT P6SM SCT070 SCT250
     FM210600 VRB02KT P6SM FEW030
     FM211400 16005KT P6SM VCSH SCT025 BKN250=



000
FTUS42 KMFL 210254 AAA
TAFAPF
TAF AMD
KAPF 210254Z 2103/2124 12005KT P6SM SCT150
     FM211400 VRB03KT P6SM VCSH SCT035 BKN250=



000
FTUS42 KMFL 210254 AAB
TAFFLL
TAF AMD
KFLL 210254Z 2103/2124 VRB03KT P6SM SCT035 SCT050 BKN070
     FM211400 16006KT P6SM VCSH SCT025 BKN250=



000
FTUS42 KMFL 210254 AAA
TAFMIA
TAF AMD
KMIA 210254Z 2103/2124 VRB04KT P6SM BKN045 BKN070
     FM210400 VRB03KT P6SM VCSH SCT050
     FM211400 16005KT P6SM VCSH SCT025 BKN250=



000
FTUS42 KMFL 210254 AAB
TAFFLL
TAF AMD
KFLL 210254Z 2103/2124 VRB03KT P6SM SCT035 SCT050 BKN070
     FM211400 16006KT P6SM VCSH SCT025 BKN250=



000
FTUS42 KMFL 210254 AAA
TAFMIA
TAF AMD
KMIA 210254Z 2103/2124 VRB04KT P6SM BKN045 BKN070
     FM210400 VRB03KT P6SM VCSH SCT050
     FM211400 16005KT P6SM VCSH SCT025 BKN250=



000
FTUS42 KMFL 210254 AAA
TAFPBI
TAF AMD
KPBI 210254Z 2103/2124 13006KT P6SM SCT070 SCT250
     FM210600 VRB02KT P6SM FEW030
     FM211400 16005KT P6SM VCSH SCT025 BKN250=



000
FTUS42 KMFL 210254 AAA
TAFPBI
TAF AMD
KPBI 210254Z 2103/2124 13006KT P6SM SCT070 SCT250
     FM210600 VRB02KT P6SM FEW030
     FM211400 16005KT P6SM VCSH SCT025 BKN250=



000
FTUS42 KMFL 210254 AAA
TAFAPF
TAF AMD
KAPF 210254Z 2103/2124 12005KT P6SM SCT150
     FM211400 VRB03KT P6SM VCSH SCT035 BKN250=



000
FTUS42 KMFL 210254 AAA
TAFAPF
TAF AMD
KAPF 210254Z 2103/2124 12005KT P6SM SCT150
     FM211400 VRB03KT P6SM VCSH SCT035 BKN250=



000
FTUS42 KMFL 210254 AAB
TAFFLL
TAF AMD
KFLL 210254Z 2103/2124 VRB03KT P6SM SCT035 SCT050 BKN070
     FM211400 16006KT P6SM VCSH SCT025 BKN250=



000
FTUS42 KMFL 210254 AAA
TAFPBI
TAF AMD
KPBI 210254Z 2103/2124 13006KT P6SM SCT070 SCT250
     FM210600 VRB02KT P6SM FEW030
     FM211400 16005KT P6SM VCSH SCT025 BKN250=



000
FTUS42 KMFL 210254 AAA
TAFAPF
TAF AMD
KAPF 210254Z 2103/2124 12005KT P6SM SCT150
     FM211400 VRB03KT P6SM VCSH SCT035 BKN250=



000
FTUS42 KMFL 210254 AAA
TAFMIA
TAF AMD
KMIA 210254Z 2103/2124 VRB04KT P6SM BKN045 BKN070
     FM210400 VRB03KT P6SM VCSH SCT050
     FM211400 16005KT P6SM VCSH SCT025 BKN250=



000
FTUS42 KMFL 210254 AAB
TAFFLL
TAF AMD
KFLL 210254Z 2103/2124 VRB03KT P6SM SCT035 SCT050 BKN070
     FM211400 16006KT P6SM VCSH SCT025 BKN250=



000
FTUS42 KMFL 210142 AAA
TAFFLL
TAF AMD
KFLL 210142Z 2102/2124 00000KT P6SM BKN070 BKN250
     FM210400 13003KT P6SM BKN040
     FM211400 16006KT P6SM VCSH SCT025 BKN250=



000
FTUS42 KMFL 202339
TAFMIA
TAF
KMIA 202339Z 2100/2124 14006KT P6SM SCT030 BKN070
     FM210400 00000KT P6SM VCSH SCT050
     FM211400 16004KT P6SM VCSH SCT025 BKN250=



000
FTUS42 KMFL 202339
TAFAPF
TAF
KAPF 202339Z 2100/2124 12005KT P6SM FEW050 SCT060
     FM211400 11003KT P6SM VCSH FEW030 BKN250=



000
FTUS42 KMFL 202339
TAFFLL
TAF
KFLL 202339Z 2100/2124 10012KT P6SM BKN035 OVC040
     FM210400 13005KT P6SM BKN040
     FM211400 16006KT P6SM VCSH SCT025 BKN250=



000
FTUS42 KMFL 202339
TAFPBI
TAF
KPBI 202339Z 2100/2124 12008KT P6SM FEW040 SCT080 BKN250
     FM210600 VRB02KT P6SM FEW030
     FM211400 16005KT P6SM VCSH SCT025 BKN250=



000
FTUS42 KMFL 202339
TAFMIA
TAF
KMIA 202339Z 2100/2124 14006KT P6SM SCT030 BKN070
     FM210400 00000KT P6SM VCSH SCT050
     FM211400 16004KT P6SM VCSH SCT025 BKN250=



000
FTUS42 KMFL 202339
TAFAPF
TAF
KAPF 202339Z 2100/2124 12005KT P6SM FEW050 SCT060
     FM211400 11003KT P6SM VCSH FEW030 BKN250=



000
FTUS42 KMFL 202339
TAFFLL
TAF
KFLL 202339Z 2100/2124 10012KT P6SM BKN035 OVC040
     FM210400 13005KT P6SM BKN040
     FM211400 16006KT P6SM VCSH SCT025 BKN250=



000
FTUS42 KMFL 202339
TAFPBI
TAF
KPBI 202339Z 2100/2124 12008KT P6SM FEW040 SCT080 BKN250
     FM210600 VRB02KT P6SM FEW030
     FM211400 16005KT P6SM VCSH SCT025 BKN250=



000
FTUS42 KMFL 202013 AAB
TAFMIA
TAF AMD
KMIA 202013Z 2020/2118 10008KT P6SM VCSH BKN035 BKN070
     FM202030 11006KT 4SM -SHRA VCTS BKN030CB OVC050
     FM202200 12004KT P6SM BKN060
     FM210600 00000KT P6SM VCSH FEW030 SCT250
     FM211400 16004KT P6SM VCSH SCT025 BKN250=



000
FTUS42 KMFL 202013 AAB
TAFMIA
TAF AMD
KMIA 202013Z 2020/2118 10008KT P6SM VCSH BKN035 BKN070
     FM202030 11006KT 4SM -SHRA VCTS BKN030CB OVC050
     FM202200 12004KT P6SM BKN060
     FM210600 00000KT P6SM VCSH FEW030 SCT250
     FM211400 16004KT P6SM VCSH SCT025 BKN250=



000
FTUS42 KMFL 201932 AAA
TAFMIA
TAF AMD
KMIA 201932Z 2020/2118 10008KT P6SM VCSH BKN035 BKN070
     FM210000 12004KT P6SM FEW030 SCT250
     FM210600 00000KT P6SM VCSH FEW030 SCT250
     FM211400 16004KT P6SM VCSH SCT025 BKN250=



000
FTUS42 KMFL 201725
TAFFLL
TAF
KFLL 201725Z 2018/2118 10010KT P6SM SCT040 BKN050 BKN250
     FM210000 12004KT P6SM FEW030 SCT250
     FM211400 16006KT P6SM VCSH SCT025 BKN250=



000
FTUS42 KMFL 201725
TAFAPF
TAF
KAPF 201725Z 2018/2118 21008KT P6SM SCT045 SCT250
     FM210000 10004KT P6SM SCT250
     FM211400 11003KT P6SM VCSH FEW030 BKN250=



000
FTUS42 KMFL 201725
TAFFLL
TAF
KFLL 201725Z 2018/2118 10010KT P6SM SCT040 BKN050 BKN250
     FM210000 12004KT P6SM FEW030 SCT250
     FM211400 16006KT P6SM VCSH SCT025 BKN250=



000
FTUS42 KMFL 201725
TAFPBI
TAF
KPBI 201725Z 2018/2118 11010KT P6SM SCT050 SCT250
     FM210000 13004KT P6SM FEW030 SCT250
     FM210600 VRB02KT P6SM FEW030
     FM211400 16005KT P6SM VCSH SCT025 BKN250=



000
FTUS42 KMFL 201725
TAFMIA
TAF
KMIA 201725Z 2018/2118 10008KT P6SM BKN035 BKN070
     FM210000 12004KT P6SM FEW030 SCT250
     FM210600 00000KT P6SM VCSH FEW030 SCT250
     FM211400 16004KT P6SM VCSH SCT025 BKN250=



000
FTUS42 KMFL 201725
TAFAPF
TAF
KAPF 201725Z 2018/2118 21008KT P6SM SCT045 SCT250
     FM210000 10004KT P6SM SCT250
     FM211400 11003KT P6SM VCSH FEW030 BKN250=



000
FTUS42 KMFL 201725
TAFPBI
TAF
KPBI 201725Z 2018/2118 11010KT P6SM SCT050 SCT250
     FM210000 13004KT P6SM FEW030 SCT250
     FM210600 VRB02KT P6SM FEW030
     FM211400 16005KT P6SM VCSH SCT025 BKN250=



000
FTUS42 KMFL 201725
TAFMIA
TAF
KMIA 201725Z 2018/2118 10008KT P6SM BKN035 BKN070
     FM210000 12004KT P6SM FEW030 SCT250
     FM210600 00000KT P6SM VCSH FEW030 SCT250
     FM211400 16004KT P6SM VCSH SCT025 BKN250=



000
FTUS42 KMFL 201522 AAA
TAFFLL
TAF AMD
KFLL 201522Z 2015/2112 09008KT P6SM FEW045 FEW120 SCT250
     FM210000 12004KT P6SM FEW030 SCT250=



000
FTUS42 KMFL 201522 AAA
TAFAPF
TAF AMD
KAPF 201522Z 2015/2112 07008KT P6SM FEW035 SCT250
     FM201800 24010KT P6SM FEW035 SCT250
     FM210000 10004KT P6SM SCT250=



000
FTUS42 KMFL 201522 AAA
TAFMIA
TAF AMD
KMIA 201522Z 2015/2112 10008KT P6SM BKN035 BKN250
     FM210000 12004KT P6SM FEW030 SCT250
     FM210600 00000KT P6SM FEW030 SCT250=



000
FTUS42 KMFL 201522 AAA
TAFAPF
TAF AMD
KAPF 201522Z 2015/2112 07008KT P6SM FEW035 SCT250
     FM201800 24010KT P6SM FEW035 SCT250
     FM210000 10004KT P6SM SCT250=



000
FTUS42 KMFL 201522 AAA
TAFPBI
TAF AMD
KPBI 201522Z 2015/2112 VRB05KT P6SM SCT045 SCT250
     FM201600 12010KT P6SM SCT045 SCT250
     FM210000 13004KT P6SM FEW030 SCT250
     FM210600 VRB02KT P6SM FEW030=



000
FTUS42 KMFL 201522 AAA
TAFFLL
TAF AMD
KFLL 201522Z 2015/2112 09008KT P6SM FEW045 FEW120 SCT250
     FM210000 12004KT P6SM FEW030 SCT250=



000
FTUS42 KMFL 201522 AAA
TAFPBI
TAF AMD
KPBI 201522Z 2015/2112 VRB05KT P6SM SCT045 SCT250
     FM201600 12010KT P6SM SCT045 SCT250
     FM210000 13004KT P6SM FEW030 SCT250
     FM210600 VRB02KT P6SM FEW030=



000
FTUS42 KMFL 201522 AAA
TAFMIA
TAF AMD
KMIA 201522Z 2015/2112 10008KT P6SM BKN035 BKN250
     FM210000 12004KT P6SM FEW030 SCT250
     FM210600 00000KT P6SM FEW030 SCT250=



000
FTUS42 KMFL 201136
TAFFLL
TAF
KFLL 201136Z 2012/2112 VRB03KT P6SM FEW045 FEW250
     FM201400 12010KT P6SM SCT035 SCT250
     FM210000 12004KT P6SM FEW030 SCT250=



000
FTUS42 KMFL 201136
TAFFLL
TAF
KFLL 201136Z 2012/2112 VRB03KT P6SM FEW045 FEW250
     FM201400 12010KT P6SM SCT035 SCT250
     FM210000 12004KT P6SM FEW030 SCT250=



000
FTUS42 KMFL 201136
TAFPBI
TAF
KPBI 201136Z 2012/2112 VRB03KT P6SM SCT040 SCT050
     FM201500 12010KT P6SM SCT035 SCT250
     FM210000 13004KT P6SM FEW030 SCT250
     FM210600 VRB02KT P6SM FEW030=



000
FTUS42 KMFL 201136
TAFMIA
TAF
KMIA 201136Z 2012/2112 VRB03KT P6SM FEW040 FEW250
     FM201500 11010KT P6SM SCT035 SCT250
     FM210000 12004KT P6SM FEW030 SCT250
     FM210600 00000KT P6SM FEW030 SCT250=



000
FTUS42 KMFL 201136
TAFMIA
TAF
KMIA 201136Z 2012/2112 VRB03KT P6SM FEW040 FEW250
     FM201500 11010KT P6SM SCT035 SCT250
     FM210000 12004KT P6SM FEW030 SCT250
     FM210600 00000KT P6SM FEW030 SCT250=



000
FTUS42 KMFL 201136
TAFAPF
TAF
KAPF 201136Z 2012/2112 05004KT P6SM FEW250
     FM201600 16008KT P6SM FEW035 SCT250
     FM201800 24010KT P6SM FEW035 SCT250
     FM210000 10004KT P6SM SCT250=



000
FTUS42 KMFL 201136
TAFPBI
TAF
KPBI 201136Z 2012/2112 VRB03KT P6SM SCT040 SCT050
     FM201500 12010KT P6SM SCT035 SCT250
     FM210000 13004KT P6SM FEW030 SCT250
     FM210600 VRB02KT P6SM FEW030=



    US Dept of Commerce
    National Oceanic and Atmospheric Administration
    National Weather Service
    1325 East West Highway
    Silver Spring, MD 20910
    Page Author: NWS Internet Services Team
Disclaimer
Information Quality
Credits
Glossary
Privacy Policy
Freedom of Information Act (FOIA)
About Us
Career Opportunities